Flight Track Log - Related Links

Times and Time Zones

All times are in EDT time to prevent confusion due to time zone crossing. See the N998TW flight status page for this flight to view local times or setup timezone preferences in your user account.


Time Position Orientation Groundspeed Altitude Reporting Facility
EDT Latitude Longitude Course Direction KTS MPH feet Rate Location/Type
Tue 05:34:00 PM 32.9667 -96.7333 91° East 261 300 2,500  Level Dallas / Fort Worth TRACON
Tue 05:35:28 PM 33.0042 -96.6208 68° East 281 323 6,300 3,041 Climbing Fort Worth Center
Tue 05:36:28 PM 33.0306 -96.5289 71° East 276 318 10,000 3,050 Climbing Fort Worth Center
Tue 05:37:28 PM 33.0531 -96.4469 72° East 276 318 12,400 2,650 Climbing Fort Worth Center
Tue 05:38:28 PM 33.0836 -96.3375 72° East 296 341 15,300 2,650 Climbing Fort Worth Center
Tue 05:39:28 PM 33.1097 -96.2478 71° East 314 361 17,700 1,850 Climbing Fort Worth Center
Tue 05:40:28 PM 33.1461 -96.1258 70° East 330 380 19,000 1,250 Climbing Fort Worth Center
Tue 05:41:28 PM 33.1783 -96.0161 71° East 367 422 20,200 1,450 Climbing Fort Worth Center
Tue 05:42:28 PM 33.2164 -95.8789 72° East 389 448 21,900 1,450 Climbing Fort Worth Center
Tue 05:43:28 PM 33.2506 -95.7692 70° East 389 448 23,100 1,550 Climbing Fort Worth Center
Tue 05:44:28 PM 33.2925 -95.6292 70° East 389 448 25,000 950 Climbing Fort Worth Center
Tue 05:45:28 PM 33.3239 -95.4967 74° East 389 448 25,000 850 Level Fort Worth Center
Tue 05:46:28 PM 33.3636 -95.3664 70° East 405 466 26,700 1,714 Climbing Fort Worth Center
Tue 05:47:27 PM 33.4011 -95.2414 70° East 405 466 28,400 1,750 Climbing Fort Worth Center
Tue 05:48:28 PM 33.4344 -95.1158 72° East 405 466 30,200 1,785 Climbing Fort Worth Center
Tue 05:49:28 PM 33.4717 -94.9906 70° East 400 460 32,000 1,800 Climbing Fort Worth Center
Tue 05:50:28 PM 33.5069 -94.8675 71° East 394 453 33,800 1,500 Climbing Fort Worth Center
Tue 05:51:28 PM 33.5342 -94.7719 71° East 382 440 35,000 600 Climbing Fort Worth Center
Tue 05:52:28 PM 33.5789 -94.6186 71° East 394 453 35,000  Level Fort Worth Center
Tue 05:53:27 PM 33.6194 -94.4825 70° East 407 468 35,000  Level Fort Worth Center
Tue 05:54:28 PM 33.6578 -94.3392 72° East 430 495 35,000  Level Fort Worth Center
Tue 05:55:28 PM 33.7044 -94.1975 68° East 443 510 35,000  Level Fort Worth Center
Tue 05:56:28 PM 33.7678 -94.0678 60° Northeast 443 510 35,000  Level Fort Worth Center
Tue 05:57:08 PM 33.8072 -93.9819 61° Northeast 451 519 35,000  Level Memphis Center
Tue 05:58:08 PM 33.8733 -93.8547 58° Northeast 457 526 35,000  Level Memphis Center
Tue 05:59:08 PM 33.9353 -93.7244 60° Northeast 451 519 35,000  Level Memphis Center
Tue 06:00:08 PM 33.9992 -93.5992 58° Northeast 446 513 35,000  Level Memphis Center
Tue 06:01:08 PM 34.0772 -93.4817 51° Northeast 441 507 35,000  Level Memphis Center
Tue 06:02:08 PM 34.1533 -93.3617 53° Northeast 441 507 35,000  Level Memphis Center
Tue 06:03:08 PM 34.2311 -93.2436 51° Northeast 446 513 35,000  Level Memphis Center
Tue 06:04:08 PM 34.3028 -93.1256 54° Northeast 446 513 35,000  Level Memphis Center
Tue 06:05:08 PM 34.3717 -93.0244 50° Northeast 446 513 35,000  Level Memphis Center
Tue 06:06:08 PM 34.4456 -92.8933 56° Northeast 446 513 35,000  Level Memphis Center
Tue 06:07:08 PM 34.5206 -92.7822 51° Northeast 441 507 35,000  Level Memphis Center
Tue 06:08:08 PM 34.5939 -92.6631 53° Northeast 435 501 35,000  Level Memphis Center
Tue 06:09:08 PM 34.6689 -92.5464 52° Northeast 435 501 35,000 -450 Level Memphis Center
Tue 06:10:08 PM 34.7378 -92.4319 54° Northeast 430 495 34,100 -1,300 Descending Memphis Center
Tue 06:11:08 PM 34.8106 -92.3225 51° Northeast 425 489 32,400 -1,550 Descending Memphis Center
Tue 06:12:08 PM 34.8767 -92.2125 54° Northeast 411 473 31,000 -700 Descending Memphis Center
Tue 06:13:08 PM 34.9494 -92.1003 52° Northeast 411 473 31,000 -300 Level Memphis Center
Tue 06:14:08 PM 35.0175 -91.9875 54° Northeast 411 473 30,400 -1,450 Descending Memphis Center
Tue 06:15:08 PM 35.0878 -91.8772 52° Northeast 411 473 28,100 -2,133 Descending Memphis Center
Tue 06:17:08 PM 35.2261 -91.6483 53° Northeast 411 473 24,000 -1,367 Descending Memphis Center
Tue 06:18:08 PM 35.2958 -91.5375 52° Northeast 406 467 24,000 -1,250 Level Memphis Center
Tue 06:19:08 PM 35.3636 -91.4289 53° Northeast 406 467 21,500 -2,950 Descending Memphis Center
Tue 06:20:08 PM 35.4356 -91.3153 52° Northeast 396 456 18,100 -3,150 Descending Memphis Center
Tue 06:21:08 PM 35.4947 -91.2114 55° Northeast 367 422 15,200 -2,800 Descending Memphis Center
Tue 06:22:08 PM 35.5494 -91.1225 53° Northeast 346 398 12,500 -2,700 Descending Memphis Center

Login

Don't have an account? Register now (free) for customized features, flight alerts, and more!